Time;durP1;ratioP1;P1;durP2;ratioP2;P2;SDS_P1;SDS_P2;PMS_P1;PMS_P2;Temp;Humidity;BMP_temperature;BMP_pressure;BME280_temperature;BME280_humidity;BME280_pressure;Samples;Min_cycle;Max_cycle;Signal;HPM_P1;HPM_P2
2021/03/26 00:01:34;;;;;;;20.60;11.93;;;;;;;9.49;36.23;100760.91;1771108;80;21098;-80
2021/03/26 00:04:04;;;;;;;21.70;13.05;;;;;;;9.49;36.43;100759.57;1757888;80;21644;-80
2021/03/26 00:06:36;;;;;;;23.05;12.82;;;;;;;9.47;36.23;100766.41;1753746;81;21174;-79
2021/03/26 00:09:06;;;;;;;25.80;13.68;;;;;;;9.45;36.32;100769.73;1787559;79;21150;-79
2021/03/26 00:11:33;;;;;;;22.67;13.28;;;;;;;9.43;36.52;100765.00;1784114;80;21182;-81
2021/03/26 00:14:02;;;;;;;27.73;12.98;;;;;;;9.41;36.59;100766.99;1788242;79;21193;-77
2021/03/26 00:16:30;;;;;;;22.73;13.15;;;;;;;9.39;36.59;100759.09;1794037;79;21189;-80
2021/03/26 00:18:59;;;;;;;20.05;12.37;;;;;;;9.39;36.71;100761.77;1733978;81;21485;-79
2021/03/26 00:21:26;;;;;;;20.08;12.07;;;;;;;9.39;36.59;100763.11;1739717;81;21371;-79
2021/03/26 00:23:54;;;;;;;21.90;12.45;;;;;;;9.39;36.58;100763.60;1773453;79;21192;-79
2021/03/26 00:26:23;;;;;;;21.93;12.70;;;;;;;9.45;36.60;100759.50;1741889;81;21697;-77
2021/03/26 00:28:51;;;;;;;23.42;12.10;;;;;;;9.37;36.45;100761.58;1737945;81;21097;-80
2021/03/26 00:31:19;;;;;;;22.17;12.93;;;;;;;9.34;36.58;100757.34;1742673;79;21779;-78
2021/03/26 00:33:46;;;;;;;;;;;;;;;9.34;36.37;100760.52;1771555;79;21240;-81
2021/03/26 00:36:13;;;;;;;21.62;12.37;;;;;;;9.33;36.43;100763.69;1766048;81;20315;-82
2021/03/26 00:38:41;;;;;;;17.45;11.83;;;;;;;9.32;36.26;100767.85;1765780;81;21087;-80
2021/03/26 00:41:09;;;;;;;18.62;12.35;;;;;;;9.34;36.25;100765.37;1738599;81;21206;-80
2021/03/26 00:43:37;;;;;;;19.85;11.80;;;;;;;9.37;36.19;100765.09;1765706;81;21226;-80
2021/03/26 00:46:05;;;;;;;20.57;13.80;;;;;;;9.37;35.89;100766.92;1765680;81;21112;-81
2021/03/26 00:48:33;;;;;;;20.52;12.15;;;;;;;9.38;35.98;100767.27;1765494;81;21209;-78
2021/03/26 00:51:02;;;;;;;20.00;12.60;;;;;;;9.36;36.03;100762.58;1765439;81;21151;-82
2021/03/26 00:53:35;;;;;;;23.07;12.37;;;;;;;9.38;36.05;100764.59;1769816;79;21181;-80
2021/03/26 00:56:04;;;;;;;20.17;11.75;;;;;;;9.38;36.15;100770.78;1765552;81;21143;-81
2021/03/26 00:58:33;;;;;;;22.15;12.07;;;;;;;9.38;36.07;100776.13;1765668;81;21142;-77
2021/03/26 01:01:01;;;;;;;21.05;12.70;;;;;;;9.38;35.99;100775.29;1765784;81;21166;-80
2021/03/26 01:03:29;;;;;;;21.17;12.80;;;;;;;9.40;35.92;100778.65;1765854;81;21601;-79
2021/03/26 01:06:02;;;;;;;20.88;12.82;;;;;;;9.40;35.89;100781.33;1765525;81;21362;-81
2021/03/26 01:08:30;;;;;;;24.65;12.90;;;;;;;9.40;35.89;100775.97;1741640;81;21132;-79
2021/03/26 01:11:09;;;;;;;23.62;12.93;;;;;;;9.41;35.75;100783.03;1762200;79;21636;-80
2021/03/26 01:13:38;;;;;;;20.20;12.47;;;;;;;9.40;35.72;100779.52;1778189;79;21758;-81
2021/03/26 01:16:07;;;;;;;22.15;14.15;;;;;;;9.40;35.68;100790.68;1765184;81;21625;-79
2021/03/26 01:18:40;;;;;;;23.57;12.85;;;;;;;9.39;35.62;100789.84;1765758;80;21168;-81
2021/03/26 01:21:16;;;;;;;23.45;13.15;;;;;;;9.37;35.61;100788.31;1738463;81;21170;-78
2021/03/26 01:23:44;;;;;;;25.80;14.03;;;;;;;9.34;35.64;100786.75;1739785;81;21069;-79
2021/03/26 01:26:13;;;;;;;21.45;12.50;;;;;;;9.34;35.72;100785.91;1780510;79;21125;-77
2021/03/26 01:28:54;;;;;;;25.97;13.95;;;;;;;9.32;35.74;100783.39;1765953;80;21197;-78
2021/03/26 01:31:26;;;;;;;25.62;13.30;;;;;;;9.32;35.76;100787.41;1738694;81;21240;-78
2021/03/26 01:33:56;;;;;;;26.73;13.48;;;;;;;9.31;35.83;100787.06;1761300;81;21221;-81
2021/03/26 01:36:26;;;;;;;21.10;13.20;;;;;;;9.32;35.97;100791.91;1766491;80;21671;-80
2021/03/26 01:38:53;;;;;;;19.55;12.18;;;;;;;9.32;35.94;100786.56;1732450;81;21217;-80
2021/03/26 01:41:27;;;;;;;20.05;12.37;;;;;;;9.31;35.92;100787.52;1762530;81;21093;-81
2021/03/26 01:43:55;;;;;;;23.27;13.10;;;;;;;9.31;35.85;100782.18;1762886;81;21561;-79
2021/03/26 01:46:23;;;;;;;22.07;12.58;;;;;;;9.30;35.82;100781.34;1762585;81;21150;-78
2021/03/26 01:48:56;;;;;;;23.73;12.58;;;;;;;9.30;35.83;100779.16;1762773;81;21193;-82
2021/03/26 01:51:31;;;;;;;22.55;12.10;;;;;;;9.28;35.96;100776.64;1765499;80;21122;-79
2021/03/26 01:54:04;;;;;;;23.62;12.35;;;;;;;9.27;36.06;100782.98;1788716;79;21151;-78
2021/03/26 01:56:33;;;;;;;24.87;13.03;;;;;;;9.27;36.12;100784.81;1792575;79;21511;-81
2021/03/26 01:59:10;;;;;;;21.48;13.05;;;;;;;9.23;36.01;100788.75;1743115;81;21118;-81
2021/03/26 02:01:46;;;;;;;21.15;12.53;;;;;;;9.22;35.94;100789.25;1762165;80;21148;-79
2021/03/26 02:04:28;;;;;;;21.35;12.75;;;;;;;9.22;35.86;100792.38;1743497;81;21536;-80
2021/03/26 02:06:57;;;;;;;26.20;13.88;;;;;;;9.22;35.87;100795.05;1762429;80;21193;-79
2021/03/26 02:09:35;;;;;;;23.47;14.58;;;;;;;9.22;35.93;100797.73;1762650;80;21187;-80
2021/03/26 02:12:26;;;;;;;22.55;13.95;;;;;;;9.22;35.98;100799.94;1743293;81;21081;-80
2021/03/26 02:15:00;;;;;;;22.93;13.55;;;;;;;9.20;35.96;100802.38;1762862;81;21632;-82
2021/03/26 02:17:32;;;;;;;21.95;12.75;;;;;;;9.18;35.99;100797.69;1762927;80;21643;-82
2021/03/26 02:20:34;;;;;;;23.30;13.43;;;;;;;9.18;36.09;100803.03;1762754;81;21146;-80
2021/03/26 02:23:12;;;;;;;23.77;13.68;;;;;;;9.14;36.12;100797.95;1763010;81;21514;-81
2021/03/26 02:25:42;;;;;;;23.57;13.80;;;;;;;9.13;36.14;100796.77;1762261;81;21169;-81
2021/03/26 02:28:10;;;;;;;20.17;13.30;;;;;;;9.13;36.03;100797.61;1719556;81;21146;-82
2021/03/26 02:30:44;;;;;;;21.65;12.60;;;;;;;9.13;35.97;100797.61;1770022;80;21145;-82
2021/03/26 02:33:14;;;;;;;21.15;12.98;;;;;;;9.12;35.93;100799.91;1781919;80;21054;-80
2021/03/26 02:35:47;;;;;;;24.15;13.32;;;;;;;9.11;35.84;100800.91;1781604;80;21193;-78
2021/03/26 02:38:31;;;;;;;23.98;13.55;;;;;;;9.09;35.78;100794.87;1780244;80;21169;-78
2021/03/26 02:41:34;;;;;;;23.35;12.73;;;;;;;9.08;35.75;100793.65;1780780;80;21228;-79
2021/03/26 02:44:22;;;;;;;21.87;13.10;;;;;;;9.08;35.80;100798.53;1781806;79;21132;-81
2021/03/26 02:47:20;;;;;;;;;;;;;;;9.07;35.74;100795.48;1757094;80;21532;-81
2021/03/26 02:49:58;;;;;;;26.80;13.75;;;;;;;9.06;35.74;100795.63;1758412;80;20237;-79
2021/03/26 02:52:40;;;;;;;24.47;12.88;;;;;;;9.04;35.63;100801.12;1759228;80;21152;-79
2021/03/26 02:55:43;;;;;;;26.48;16.20;;;;;;;9.03;35.60;100787.89;1752551;80;21165;-80
2021/03/26 02:58:20;;;;;;;30.15;17.98;;;;;;;8.83;35.80;100797.72;1718506;80;21135;-81
2021/03/26 03:01:15;;;;;;;26.45;15.28;;;;;;;9.01;35.46;100805.41;1744216;82;21194;-81
2021/03/26 03:03:44;;;;;;;24.45;16.57;;;;;;;9.00;35.45;100810.41;1749600;82;21725;-81
2021/03/26 03:06:18;;;;;;;24.15;15.68;;;;;;;8.98;35.54;100811.52;1749532;82;21154;-78
2021/03/26 03:08:48;;;;;;;26.33;15.38;;;;;;;8.97;35.61;100808.49;1745443;82;21195;-80
2021/03/26 03:11:33;;;;;;;26.17;15.75;;;;;;;8.95;35.72;100805.09;1723109;82;21638;-78
2021/03/26 03:14:13;;;;;;;28.27;17.52;;;;;;;8.94;35.90;100810.94;1749751;82;21160;-82
2021/03/26 03:17:15;;;;;;;324.95;35.95;;;;;;;8.93;35.98;100810.59;1749571;82;21190;-80
2021/03/26 03:20:16;;;;;;;190.35;28.95;;;;;;;8.92;36.02;100808.91;1749690;82;21110;-79
2021/03/26 03:22:59;;;;;;;30.72;20.45;;;;;;;8.92;36.21;100813.41;1720626;82;21587;-80
2021/03/26 03:25:28;;;;;;;30.92;18.27;;;;;;;8.92;36.10;100808.91;1739338;80;21163;-79
2021/03/26 03:28:10;;;;;;;29.75;16.82;;;;;;;8.92;35.98;100817.42;1750731;80;21189;-78
2021/03/26 03:31:14;;;;;;;27.15;17.30;;;;;;;8.92;36.02;100813.41;1759479;80;21147;-81
2021/03/26 03:33:56;;;;;;;47.15;21.80;;;;;;;8.92;36.01;100818.27;1757157;80;21381;-80
2021/03/26 03:36:26;;;;;;;30.32;18.32;;;;;;;8.89;36.00;100815.36;1753618;80;21107;-78
2021/03/26 03:39:15;;;;;;;28.57;16.70;;;;;;;8.90;36.03;100816.20;1749110;82;21198;-77
2021/03/26 03:41:58;;;;;;;24.98;15.50;;;;;;;8.90;36.07;100816.20;1747632;82;21259;-76
2021/03/26 03:45:00;;;;;;;26.15;15.32;;;;;;;8.90;36.09;100818.88;1749003;82;21433;-77
2021/03/26 03:47:42;;;;;;;24.32;14.93;;;;;;;8.88;36.07;100814.17;1749425;82;21167;-80
2021/03/26 03:50:23;;;;;;;24.23;14.20;;;;;;;8.84;36.06;100814.09;1748330;82;21132;-76
2021/03/26 03:53:03;;;;;;;25.32;14.13;;;;;;;8.83;36.25;100820.42;1748186;82;21212;-77
2021/03/26 03:55:41;;;;;;;34.67;15.30;;;;;;;8.80;36.14;100820.20;1752650;80;21174;-77
2021/03/26 03:58:17;;;;;;;24.45;15.08;;;;;;;8.74;36.11;100823.92;1731361;80;21173;-77
2021/03/26 04:01:27;;;;;;;27.00;14.83;;;;;;;8.69;36.48;100824.34;1752975;80;21581;-75
2021/03/26 04:04:15;;;;;;;26.05;15.20;;;;;;;8.68;36.51;100826.66;1778662;80;21164;-76
2021/03/26 04:06:58;;;;;;;;;;;;;;;8.65;36.52;100824.25;1782135;80;21189;-77
2021/03/26 04:09:32;;;;;;;27.58;15.23;;;;;;;8.64;36.79;100827.91;1778746;80;20270;-79
2021/03/26 04:12:12;;;;;;;29.07;18.00;;;;;;;8.62;36.65;100821.84;1719050;81;21216;-77
2021/03/26 04:15:07;;;;;;;33.80;19.57;;;;;;;8.60;36.54;100820.66;1760951;81;21199;-77
2021/03/26 04:17:49;;;;;;;25.57;15.58;;;;;;;8.58;36.49;100829.31;1767831;80;21207;-76
2021/03/26 04:20:23;;;;;;;31.57;18.10;;;;;;;8.57;36.42;100830.27;1790076;80;21633;-77
2021/03/26 04:22:56;;;;;;;29.57;16.02;;;;;;;8.57;36.63;100828.93;1744974;81;21227;-76
2021/03/26 04:25:32;;;;;;;26.25;16.30;;;;;;;8.54;36.39;100835.90;1760542;80;21193;-77
2021/03/26 04:28:24;;;;;;;27.45;16.02;;;;;;;8.55;36.44;100836.25;1755922;81;21182;-77
2021/03/26 04:31:04;;;;;;;30.88;17.00;;;;;;;8.59;36.38;100834.16;1763777;80;21168;-75
2021/03/26 04:33:42;;;;;;;28.73;16.00;;;;;;;8.72;36.47;100841.44;1775334;80;21195;-77
2021/03/26 04:36:09;;;;;;;25.77;15.10;;;;;;;8.77;36.50;100844.53;1768529;79;21863;-76
2021/03/26 04:38:47;;;;;;;27.65;14.98;;;;;;;8.84;36.40;100851.49;1758431;79;21165;-77
2021/03/26 04:41:23;;;;;;;26.33;16.77;;;;;;;8.87;36.18;100850.73;1791154;79;21421;-76
2021/03/26 04:44:14;;;;;;;31.07;17.07;;;;;;;8.93;35.95;100850.67;1754180;79;21176;-76
2021/03/26 04:47:22;;;;;;;26.60;15.48;;;;;;;8.98;35.88;100853.77;1776404;79;21188;-76
2021/03/26 04:49:58;;;;;;;28.27;15.60;;;;;;;9.05;35.65;100856.75;1755123;79;21621;-76
2021/03/26 04:52:40;;;;;;;29.12;16.02;;;;;;;9.12;35.55;100862.71;1771399;79;21213;-76
2021/03/26 04:55:20;;;;;;;30.32;16.60;;;;;;;9.19;35.42;100867.52;1784924;79;21158;-76
2021/03/26 04:58:02;;;;;;;27.70;16.65;;;;;;;9.23;35.26;100859.58;1798680;79;21177;-78
2021/03/26 05:00:47;;;;;;;;;;;;;;;9.27;35.24;100863.66;1762520;80;21183;-77
2021/03/26 05:03:33;;;;;;;31.52;17.55;;;;;;;9.31;35.08;100861.03;1782234;79;20237;-76
2021/03/26 05:06:21;;;;;;;34.13;16.57;;;;;;;9.32;34.86;100857.41;1817693;78;21050;-75
2021/03/26 05:08:59;;;;;;;29.18;16.60;;;;;;;9.37;35.07;100864.51;1742699;79;21051;-77
2021/03/26 05:11:36;;;;;;;32.15;17.25;;;;;;;9.47;34.76;100864.50;1769103;79;22277;-76
2021/03/26 05:14:14;;;;;;;36.60;18.05;;;;;;;9.49;34.78;100863.85;1728385;81;21153;-77
2021/03/26 05:16:50;;;;;;;29.35;17.07;;;;;;;9.56;34.82;100863.66;1773352;79;21670;-75
2021/03/26 05:19:46;;;;;;;26.40;15.55;;;;;;;9.62;34.72;100859.91;1772917;79;21141;-75
2021/03/26 05:22:41;;;;;;;28.55;16.27;;;;;;;9.72;34.65;100863.94;1751329;81;21114;-77
2021/03/26 05:25:34;;;;;;;29.25;16.75;;;;;;;9.81;34.48;100870.23;1737377;82;21659;-78
2021/03/26 05:28:10;;;;;;;29.25;16.80;;;;;;;9.89;34.33;100873.04;1732701;82;21216;-76
2021/03/26 05:30:41;;;;;;;29.87;17.90;;;;;;;9.96;34.24;100867.97;1766418;79;21306;-76
2021/03/26 05:33:29;;;;;;;30.77;17.42;;;;;;;10.03;34.08;100869.91;1751999;81;21199;-76
2021/03/26 05:36:34;;;;;;;32.48;18.42;;;;;;;10.10;33.97;100871.03;1753394;79;21561;-76
2021/03/26 05:39:23;;;;;;;32.20;18.60;;;;;;;10.18;34.00;100872.99;1722562;81;21546;-77
2021/03/26 05:42:40;;;;;;;34.67;18.35;;;;;;;10.26;33.93;100873.61;1664965;85;21461;-76
2021/03/26 05:56:46;;;;;;;29.72;18.00;;;;;;;10.60;33.51;100885.47;1848419;77;22070;-78
2021/03/26 05:59:33;;;;;;;28.30;16.75;;;;;;;10.61;33.40;100887.65;1820883;78;21168;-77
2021/03/26 06:02:47;;;;;;;33.58;18.42;;;;;;;10.77;33.29;100891.05;1855544;76;23270;-77
2021/03/26 06:06:15;;;;;;;34.20;18.20;;;;;;;10.82;33.28;100892.78;1842957;77;21745;-76
2021/03/26 06:09:25;;;;;;;30.82;18.20;;;;;;;10.92;33.15;100897.58;1835944;77;21196;-78
2021/03/26 06:12:37;;;;;;;33.85;18.15;;;;;;;11.07;32.99;100898.75;1841602;76;21196;-78
2021/03/26 06:15:48;;;;;;;32.73;19.05;;;;;;;11.26;32.76;100895.09;1863416;75;22674;-77
2021/03/26 06:18:46;;;;;;;25.85;17.55;;;;;;;11.33;32.71;100898.87;1834161;77;21193;-77
2021/03/26 06:21:55;;;;;;;31.65;18.02;;;;;;;11.48;32.51;100908.56;1837387;77;21208;-76
2021/03/26 06:24:51;;;;;;;31.42;18.23;;;;;;;11.61;32.36;100900.97;1787918;78;21249;-76
2021/03/26 06:27:39;;;;;;;32.30;18.17;;;;;;;11.74;32.15;100907.80;1795716;78;21161;-77
2021/03/26 06:30:43;;;;;;;31.05;17.52;;;;;;;11.89;32.03;100911.13;1746204;79;21122;-76
2021/03/26 06:34:02;;;;;;;29.60;17.23;;;;;;;12.00;31.88;100902.52;1727439;79;21208;-77
2021/03/26 06:37:04;;;;;;;27.00;17.52;;;;;;;12.11;31.67;100910.30;1744421;79;21133;-77
2021/03/26 06:39:57;;;;;;;28.42;17.25;;;;;;;12.27;31.41;100909.58;1783014;79;21128;-77
2021/03/26 06:42:59;;;;;;;31.65;18.95;;;;;;;12.40;31.29;100912.19;1780207;78;21701;-76
2021/03/26 06:45:50;;;;;;;29.60;17.40;;;;;;;12.47;31.22;100907.00;1730355;79;21552;-76
2021/03/26 06:48:43;;;;;;;30.72;18.57;;;;;;;12.44;31.20;100914.89;1779098;79;21117;-77
2021/03/26 06:51:44;;;;;;;32.55;18.40;;;;;;;12.37;31.15;100918.37;1782879;79;21201;-78
2021/03/26 06:55:29;;;;;;;31.02;17.20;;;;;;;12.28;31.42;100920.66;1808554;77;24294;-76
2021/03/26 07:01:45;;;;;;;32.67;18.45;;;;;;;12.11;31.64;100921.03;1821033;77;22751;-77
2021/03/26 07:04:42;;;;;;;31.25;17.05;;;;;;;12.05;31.78;100917.64;1741938;80;21601;-77
2021/03/26 07:07:39;;;;;;;29.87;17.57;;;;;;;12.01;31.71;100921.14;1781473;78;21133;-76
2021/03/26 07:10:34;;;;;;;29.05;16.48;;;;;;;11.98;31.74;100924.13;1818766;77;21097;-77
2021/03/26 07:13:31;;;;;;;25.55;16.15;;;;;;;11.93;31.83;100923.25;1804327;76;21124;-76
2021/03/26 07:16:39;;;;;;;28.27;16.70;;;;;;;11.93;31.84;100923.75;1790326;77;21212;-77
2021/03/26 07:19:50;;;;;;;33.00;17.52;;;;;;;11.95;31.92;100926.30;1794960;78;21578;-77
2021/03/26 07:23:11;;;;;;;28.50;16.32;;;;;;;11.99;31.83;100924.49;1801639;78;21195;-78
2021/03/26 07:26:04;;;;;;;30.23;17.12;;;;;;;12.14;31.94;100921.58;1806909;78;21243;-78
2021/03/26 07:29:00;;;;;;;29.80;16.60;;;;;;;12.40;31.95;100928.80;1774096;78;21224;-79
2021/03/26 07:31:41;;;;;;;30.88;16.87;;;;;;;12.67;31.78;100923.25;1784947;78;22418;-79
2021/03/26 07:34:33;;;;;;;29.55;15.98;;;;;;;13.01;31.45;100930.44;1827085;77;21179;-79
2021/03/26 07:37:18;;;;;;;26.05;15.83;;;;;;;13.32;30.94;100928.05;1793249;78;21228;-79
2021/03/26 07:40:02;;;;;;;29.18;16.70;;;;;;;13.68;30.55;100937.20;1810779;78;21212;-77
2021/03/26 07:42:47;;;;;;;25.80;16.17;;;;;;;13.99;30.19;100936.52;1807378;78;21195;-78
2021/03/26 07:45:56;;;;;;;27.90;15.85;;;;;;;14.23;29.95;100934.33;1809449;78;21200;-78
2021/03/26 07:48:54;;;;;;;24.45;14.93;;;;;;;14.60;29.57;100933.78;1810620;78;21208;-75
2021/03/26 07:51:59;;;;;;;23.98;14.45;;;;;;;14.93;29.12;100931.80;1811529;78;21215;-76
2021/03/26 07:54:59;;;;;;;26.30;15.58;;;;;;;15.25;28.64;100936.71;1808123;78;21223;-78
2021/03/26 07:57:58;;;;;;;24.60;12.35;;;;;;;15.56;28.36;100933.48;1807428;78;21216;-78
2021/03/26 08:00:49;;;;;;;21.00;12.70;;;;;;;15.87;27.83;100935.33;1808610;78;21247;-76
2021/03/26 08:03:52;;;;;;;21.25;13.88;;;;;;;16.13;27.18;100935.78;1802940;78;21236;-79
2021/03/26 08:06:40;;;;;;;25.37;14.18;;;;;;;16.35;27.23;100932.70;1810601;78;21180;-77
2021/03/26 08:09:43;;;;;;;25.43;15.23;;;;;;;16.63;26.90;100944.25;1796580;78;21118;-76
2021/03/26 08:12:31;;;;;;;23.57;14.20;;;;;;;16.85;26.66;100941.13;1806494;78;21207;-77
2021/03/26 08:15:28;;;;;;;18.65;11.78;;;;;;;17.06;26.39;100939.86;1809485;78;21235;-77
2021/03/26 08:18:32;;;;;;;24.60;13.62;;;;;;;17.24;25.98;100936.23;1809491;78;21201;-79
2021/03/26 08:21:17;;;;;;;27.52;13.25;;;;;;;17.44;25.62;100938.32;1810683;78;21208;-77
2021/03/26 08:24:30;;;;;;;20.82;12.63;;;;;;;17.60;25.29;100939.97;1809504;78;21207;-77
2021/03/26 08:27:22;;;;;;;21.48;13.43;;;;;;;17.75;25.31;100935.34;1808976;78;21694;-77
2021/03/26 08:30:35;;;;;;;19.37;12.73;;;;;;;17.92;25.28;100940.83;1807458;78;21188;-77
2021/03/26 08:33:34;;;;;;;19.82;14.03;;;;;;;18.07;25.03;100939.39;1809376;78;21216;-79
2021/03/26 08:36:37;;;;;;;20.88;12.35;;;;;;;18.21;24.75;100947.98;1810099;78;21211;-77
2021/03/26 08:39:29;;;;;;;20.02;11.45;;;;;;;18.33;24.57;100942.01;1782790;78;21620;-77
2021/03/26 08:42:40;;;;;;;20.75;11.60;;;;;;;18.44;24.45;100944.16;1809321;78;21196;-78
2021/03/26 08:45:34;;;;;;;15.78;10.28;;;;;;;18.55;24.46;100946.34;1814163;78;21236;-77
2021/03/26 08:48:34;;;;;;;16.45;11.60;;;;;;;18.62;24.38;100940.95;1782202;78;21187;-78
2021/03/26 08:55:08;;;;;;;18.67;11.88;;;;;;;18.74;24.36;100941.58;1795772;78;22639;-78
2021/03/26 08:57:59;;;;;;;23.57;12.98;;;;;;;18.73;24.31;100937.20;1740367;80;21195;-77
2021/03/26 09:01:25;;;;;;;21.73;12.88;;;;;;;18.71;24.40;100943.36;1791422;79;21244;-75
2021/03/26 09:04:22;;;;;;;20.77;12.13;;;;;;;18.71;24.44;100946.56;1786887;79;21205;-77
2021/03/26 09:07:45;;;;;;;17.77;12.33;;;;;;;18.67;24.48;100942.05;1757811;79;21240;-76
2021/03/26 09:11:08;;;;;;;17.57;12.23;;;;;;;18.66;24.54;100949.01;1787341;79;21233;-77
2021/03/26 09:14:08;;;;;;;18.77;12.10;;;;;;;18.61;24.79;100949.61;1768029;79;21236;-76
2021/03/26 09:16:39;;;;;;;17.42;11.30;;;;;;;18.53;24.79;100947.56;1761737;80;21193;-79
2021/03/26 09:19:13;;;;;;;16.52;10.95;;;;;;;18.44;25.12;100946.88;1765275;80;21245;-78
2021/03/26 09:22:26;;;;;;;16.70;10.63;;;;;;;18.39;25.19;100943.92;1763250;80;21262;-78
2021/03/26 09:25:26;;;;;;;18.85;10.55;;;;;;;18.28;25.31;100941.24;1754512;80;21460;-77
2021/03/26 09:28:00;;;;;;;15.72;9.68;;;;;;;18.15;25.41;100943.33;1783447;79;21211;-78
2021/03/26 09:30:39;;;;;;;17.65;8.88;;;;;;;18.01;25.41;100938.83;1757103;80;21153;-77
2021/03/26 09:33:13;;;;;;;15.40;8.10;;;;;;;17.90;25.63;100943.44;1717764;80;21161;-78
2021/03/26 09:35:56;;;;;;;23.73;9.28;;;;;;;17.78;25.76;100941.75;1756480;80;21127;-79
2021/03/26 09:38:34;;;;;;;16.00;9.28;;;;;;;17.57;25.92;100939.82;1747905;80;21121;-79
2021/03/26 09:41:29;;;;;;;14.40;9.43;;;;;;;17.19;26.48;100935.97;1756196;80;21127;-78
2021/03/26 09:44:20;;;;;;;14.83;9.28;;;;;;;17.03;26.67;100942.93;1768465;79;21560;-79
2021/03/26 09:47:07;;;;;;;15.55;9.18;;;;;;;16.89;26.87;100935.16;1755358;79;21159;-79
2021/03/26 09:49:52;;;;;;;15.43;9.60;;;;;;;16.78;27.05;100944.27;1764020;80;21121;-77
2021/03/26 09:52:43;;;;;;;17.75;9.55;;;;;;;16.69;27.56;100941.63;1764829;80;21627;-78
2021/03/26 09:55:36;;;;;;;13.03;9.28;;;;;;;16.59;27.66;100941.59;1761678;80;21109;-78
2021/03/26 09:58:30;;;;;;;16.45;8.65;;;;;;;16.46;28.11;100943.05;1761614;80;21141;-79
2021/03/26 10:01:20;;;;;;;12.05;7.75;;;;;;;16.40;28.51;100947.02;1770948;79;21294;-81
2021/03/26 10:04:12;;;;;;;18.17;7.87;;;;;;;16.35;28.73;100944.88;1761381;80;21229;-79
2021/03/26 10:07:14;;;;;;;12.23;7.70;;;;;;;16.32;28.85;100947.09;1753467;80;21785;-81
2021/03/26 10:12:25;;;;;;;14.15;8.05;;;;;;;16.23;29.43;100943.62;1756556;80;21272;-79
2021/03/26 10:15:00;;;;;;;16.70;6.33;;;;;;;16.20;29.46;100948.87;1760982;80;21840;-79
2021/03/26 10:17:53;;;;;;;7.62;5.95;;;;;;;16.18;29.49;100943.34;1758559;80;21249;-78
2021/03/26 10:20:29;;;;;;;10.93;6.30;;;;;;;16.17;29.71;100938.97;1759304;80;21173;-76
2021/03/26 10:23:06;;;;;;;12.20;6.60;;;;;;;16.15;29.76;100944.53;1763799;80;21589;-79
2021/03/26 10:25:48;;;;;;;12.85;5.55;;;;;;;16.14;29.83;100942.86;1760273;80;21138;-76
2021/03/26 10:28:43;;;;;;;7.37;5.33;;;;;;;16.14;29.88;100944.73;1759982;80;21795;-77
2021/03/26 10:31:22;;;;;;;12.90;4.95;;;;;;;16.10;29.71;100940.19;1759183;80;21192;-78
2021/03/26 10:34:00;;;;;;;9.68;4.83;;;;;;;16.12;29.87;100931.38;1863722;75;22277;-77
2021/03/26 10:36:53;;;;;;;6.08;3.98;;;;;;;16.07;30.03;100929.73;1766769;78;21182;-78
2021/03/26 10:39:36;;;;;;;10.45;3.65;;;;;;;16.06;30.16;100929.41;1778098;79;22603;-79
2021/03/26 10:42:12;;;;;;;5.47;3.62;;;;;;;16.04;29.93;100927.94;1786883;78;21220;-80
2021/03/26 10:45:09;;;;;;;4.67;3.50;;;;;;;15.97;29.75;100929.16;1790964;79;21141;-80
2021/03/26 10:47:53;;;;;;;7.40;3.27;;;;;;;15.70;30.13;100931.91;1765409;79;21608;-79
2021/03/26 10:50:44;;;;;;;7.83;3.87;;;;;;;15.90;29.93;100930.92;1736837;80;22253;-78
2021/03/26 10:53:16;;;;;;;6.42;3.47;;;;;;;15.90;30.01;100930.92;1768845;78;21474;-78
2021/03/26 10:55:54;;;;;;;5.97;3.62;;;;;;;15.90;30.04;100932.27;1791491;78;21160;-76
2021/03/26 10:58:40;;;;;;;8.05;4.45;;;;;;;15.91;30.19;100932.59;1779117;79;21027;-78
2021/03/26 11:01:12;;;;;;;9.33;4.65;;;;;;;15.91;30.30;100933.44;1744227;79;21675;-78
2021/03/26 11:04:14;;;;;;;13.38;5.85;;;;;;;15.91;30.33;100931.25;1775939;79;21545;-78
2021/03/26 11:06:51;;;;;;;15.83;4.85;;;;;;;15.91;30.41;100932.59;1779444;79;21141;-78
2021/03/26 11:09:29;;;;;;;6.15;3.60;;;;;;;15.91;30.36;100932.59;1777556;79;21664;-77
2021/03/26 11:12:15;;;;;;;4.72;2.95;;;;;;;15.91;30.26;100929.38;1788611;78;21126;-80
2021/03/26 11:15:07;;;;;;;6.50;3.30;;;;;;;15.90;30.25;100926.36;1762566;79;21174;-80
2021/03/26 11:17:42;;;;;;;6.80;4.05;;;;;;;15.90;30.52;100925.52;1790055;78;21188;-78
2021/03/26 11:20:32;;;;;;;6.75;3.90;;;;;;;15.89;30.77;100923.30;1769597;79;21117;-78
2021/03/26 11:23:24;;;;;;;7.03;3.70;;;;;;;15.89;30.78;100935.97;1784158;79;21137;-76
2021/03/26 11:25:56;;;;;;;7.72;3.80;;;;;;;15.87;30.85;100919.95;1794876;78;21014;-79
2021/03/26 11:28:49;;;;;;;4.40;3.42;;;;;;;15.87;30.84;100917.77;1733104;78;21204;-79
2021/03/26 11:32:04;;;;;;;9.83;4.10;;;;;;;15.84;30.70;100920.30;1775821;79;21220;-77
2021/03/26 11:35:05;;;;;;;5.42;3.42;;;;;;;16.20;30.16;100921.02;1727684;79;21240;-76
2021/03/26 11:37:48;;;;;;;6.53;3.20;;;;;;;16.21;30.07;100918.63;1764358;80;21197;-77
2021/03/26 11:40:35;;;;;;;5.67;3.50;;;;;;;16.20;30.13;100921.84;1776501;79;21699;-76
2021/03/26 11:43:16;;;;;;;5.30;3.10;;;;;;;16.18;30.28;100919.86;1771269;79;21187;-77
2021/03/26 11:46:00;;;;;;;9.43;3.10;;;;;;;16.18;30.15;100921.20;1776701;79;21185;-76
2021/03/26 11:49:02;;;;;;;6.75;3.10;;;;;;;16.17;29.98;100918.19;1773174;78;21185;-79
2021/03/26 11:51:38;;;;;;;5.97;2.90;;;;;;;16.18;30.05;100910.39;1782675;79;21213;-78
2021/03/26 11:54:24;;;;;;;11.73;2.92;;;;;;;16.18;29.87;100908.20;1742656;80;21179;-79
2021/03/26 11:57:29;;;;;;;5.50;2.22;;;;;;;16.18;29.61;100914.97;1768974;79;21209;-78
2021/03/26 12:00:26;;;;;;;5.15;3.10;;;;;;;16.16;29.66;100907.53;1737596;78;21213;-78
2021/03/26 12:03:01;;;;;;;5.80;2.47;;;;;;;16.15;29.69;100910.75;1794209;78;21149;-77
2021/03/26 12:05:51;;;;;;;3.37;2.37;;;;;;;16.13;29.65;100906.05;1789530;79;21718;-77
2021/03/26 12:08:57;;;;;;;6.25;3.15;;;;;;;16.11;29.65;100906.73;1750653;80;21204;-77
2021/03/26 12:11:56;;;;;;;5.87;2.55;;;;;;;16.08;29.76;100899.02;1793292;78;21106;-79
2021/03/26 12:14:51;;;;;;;4.33;2.30;;;;;;;16.05;29.89;100906.12;1768385;79;21217;-78
2021/03/26 12:18:00;;;;;;;6.50;2.75;;;;;;;16.01;29.77;100902.11;1794776;78;21181;-78
2021/03/26 12:20:38;;;;;;;3.72;2.70;;;;;;;15.97;29.74;100907.03;1788481;78;21236;-77
2021/03/26 12:23:26;;;;;;;7.37;2.50;;;;;;;15.95;29.71;100898.28;1793284;78;21376;-78
2021/03/26 12:26:08;;;;;;;7.42;2.70;;;;;;;15.94;29.52;100903.84;1792407;78;21672;-77
2021/03/26 12:29:10;;;;;;;4.47;2.35;;;;;;;15.93;29.56;100907.06;1784685;78;21122;-76
2021/03/26 12:31:46;;;;;;;9.98;3.15;;;;;;;15.91;29.51;100901.53;1787533;79;21125;-78
2021/03/26 12:34:38;;;;;;;5.97;2.70;;;;;;;15.89;29.54;100906.26;1794053;78;21133;-79
2021/03/26 12:37:07;;;;;;;3.40;2.55;;;;;;;15.86;29.55;100903.94;1794124;78;21209;-80
2021/03/26 12:39:44;;;;;;;4.03;2.80;;;;;;;15.82;29.68;100902.11;1711582;80;21409;-77
2021/03/26 12:42:26;;;;;;;5.58;2.50;;;;;;;15.79;29.77;100899.76;1747237;80;21790;-77
2021/03/26 12:45:03;;;;;;;6.90;2.72;;;;;;;15.75;29.83;100904.35;1761826;79;21203;-80
2021/03/26 12:47:50;;;;;;;4.85;2.70;;;;;;;15.72;29.99;100898.30;1768721;79;21231;-76
2021/03/26 12:50:27;;;;;;;4.05;2.65;;;;;;;15.71;29.82;100894.41;1769488;79;21196;-77
2021/03/26 12:53:06;;;;;;;4.95;2.83;;;;;;;15.68;30.01;100895.63;1773800;80;21182;-77
2021/03/26 12:55:53;;;;;;;7.22;3.33;;;;;;;15.67;30.14;100895.31;1763620;80;22406;-79
2021/03/26 12:58:52;;;;;;;5.00;3.25;;;;;;;15.64;30.11;100886.21;1791202;79;21230;-78
2021/03/26 13:01:33;;;;;;;3.87;2.80;;;;;;;15.64;30.12;100892.13;1772191;79;21208;-78
2021/03/26 13:04:35;;;;;;;5.53;3.20;;;;;;;15.65;30.21;100885.70;1774408;79;21217;-78